createdAt,value
2023-05-20T00:00:26.506Z,92.93
2023-05-20T00:04:48.388Z,93.47
2023-05-20T00:08:50.912Z,92.94
2023-05-20T00:12:53.404Z,92.81
2023-05-20T00:16:56.835Z,93.32
2023-05-20T00:21:00.610Z,93.27
2023-05-20T00:25:02.755Z,93.35
2023-05-20T00:29:05.065Z,93.41
2023-05-20T00:33:07.972Z,93.49
2023-05-20T00:37:12.148Z,93.58
2023-05-20T00:41:14.920Z,93.72
2023-05-20T00:45:18.954Z,93.78
2023-05-20T00:49:23.537Z,93.00
2023-05-20T00:53:26.727Z,92.45
2023-05-20T00:57:30.766Z,93.18
2023-05-20T01:01:34.162Z,93.73
2023-05-20T01:05:41.394Z,94.06
2023-05-20T01:09:45.374Z,93.86
2023-05-20T01:13:55.085Z,93.88
2023-05-20T01:18:02.408Z,93.59
2023-05-20T01:22:07.975Z,93.63
2023-05-20T01:26:14.504Z,93.62
2023-05-20T01:30:18.388Z,93.41
2023-05-20T01:34:25.940Z,93.32
2023-05-20T01:38:29.933Z,93.44
2023-05-20T01:42:34.922Z,93.56
2023-05-20T01:46:40.491Z,94.19
2023-05-20T01:50:44.490Z,94.05
2023-05-20T01:54:51.395Z,94.18
2023-05-20T01:58:56.363Z,94.26
2023-05-20T02:02:59.568Z,94.22
2023-05-20T02:07:03.010Z,94.39
2023-05-20T02:11:05.757Z,94.80
2023-05-20T02:15:08.472Z,94.61
2023-05-20T02:19:13.168Z,94.01
2023-05-20T02:23:15.780Z,93.82
2023-05-20T02:27:17.777Z,94.12
2023-05-20T02:31:22.319Z,94.16
2023-05-20T02:35:25.297Z,94.51
2023-05-20T02:39:31.332Z,94.91
2023-05-20T02:43:38.912Z,94.87
2023-05-20T02:47:41.451Z,94.79
2023-05-20T02:51:46.816Z,94.92
2023-05-20T02:55:50.687Z,94.77
2023-05-20T02:59:53.469Z,94.92
2023-05-20T03:03:56.152Z,95.06
2023-05-20T03:08:00.989Z,94.23
2023-05-20T03:12:03.602Z,94.50
2023-05-20T03:16:06.959Z,94.10
2023-05-20T03:20:13.606Z,94.39
2023-05-20T03:24:16.531Z,94.76
2023-05-20T03:28:19.568Z,94.91
2023-05-20T03:32:23.922Z,94.83
2023-05-20T03:36:27.805Z,94.96
2023-05-20T03:40:35.120Z,94.73
2023-05-20T03:45:06.882Z,94.58
2023-05-20T03:49:15.320Z,94.42
2023-05-20T03:53:20.258Z,94.41
2023-05-20T03:57:24.367Z,94.53
2023-05-20T04:01:26.966Z,94.49
2023-05-20T04:05:37.107Z,94.84
2023-05-20T04:09:46.065Z,94.62
2023-05-20T04:13:49.871Z,94.64
2023-05-20T04:17:55.491Z,94.66
2023-05-20T04:21:58.944Z,94.55
2023-05-20T04:26:08.991Z,94.60
2023-05-20T04:30:17.648Z,94.44
2023-05-20T04:34:26.985Z,94.60
2023-05-20T04:38:33.297Z,94.70
2023-05-20T04:42:37.283Z,94.73
2023-05-20T04:46:42.536Z,94.56
2023-05-20T04:50:45.652Z,94.48
2023-05-20T04:54:48.192Z,94.36
2023-05-20T04:58:51.414Z,94.34
2023-05-20T05:02:56.139Z,94.25
2023-05-20T05:06:59.841Z,93.99
2023-05-20T05:11:01.929Z,93.94
2023-05-20T05:15:04.597Z,93.62
2023-05-20T05:19:09.915Z,93.25
2023-05-20T05:23:14.511Z,93.04
2023-05-20T05:27:17.452Z,92.93
2023-05-20T05:31:19.379Z,92.87
2023-05-20T05:35:22.089Z,93.13
2023-05-20T05:39:25.773Z,93.07
2023-05-20T05:43:28.534Z,92.90
2023-05-20T05:47:32.526Z,92.11
2023-05-20T05:51:38.224Z,91.17
2023-05-20T05:55:42.318Z,90.94
2023-05-20T05:59:46.515Z,90.58
2023-05-20T06:03:52.442Z,90.08
2023-05-20T06:07:57.641Z,89.21
2023-05-20T06:12:03.901Z,88.34
2023-05-20T06:16:08.380Z,88.14
2023-05-20T06:20:11.704Z,87.91
2023-05-20T06:24:16.113Z,87.78
2023-05-20T06:28:22.096Z,87.82
2023-05-20T06:32:25.062Z,87.51
2023-05-20T06:36:28.698Z,86.73
2023-05-20T06:40:32.467Z,86.36
2023-05-20T06:44:34.723Z,86.06
2023-05-20T06:48:50.106Z,85.26
2023-05-20T06:52:57.075Z,85.05
2023-05-20T06:57:02.840Z,84.98
2023-05-20T07:01:17.251Z,84.54
2023-05-20T07:05:24.783Z,84.21
2023-05-20T07:09:27.820Z,83.94
2023-05-20T07:13:31.009Z,82.89
2023-05-20T07:17:37.761Z,82.82
2023-05-20T07:21:41.564Z,82.30
2023-05-20T07:25:58.830Z,82.47
2023-05-20T07:30:01.902Z,82.14
2023-05-20T07:34:08.083Z,81.45
2023-05-20T07:38:13.353Z,80.21
2023-05-20T07:42:17.122Z,79.53
2023-05-20T07:46:22.751Z,78.94
2023-05-20T07:50:25.910Z,78.50
2023-05-20T07:54:28.653Z,77.70
2023-05-20T07:58:33.359Z,76.54
2023-05-20T08:02:36.930Z,76.39
2023-05-20T08:06:44.877Z,75.85
2023-05-20T08:10:53.660Z,76.30
2023-05-20T08:14:57.557Z,75.88
2023-05-20T08:19:00.312Z,74.22
2023-05-20T08:23:03.420Z,73.95
2023-05-20T08:27:07.751Z,74.01
2023-05-20T08:31:12.313Z,74.26
2023-05-20T08:35:16.636Z,73.60
2023-05-20T08:39:21.175Z,73.35
2023-05-20T08:43:25.857Z,72.98
2023-05-20T08:47:34.557Z,72.89
2023-05-20T08:51:38.551Z,72.18
2023-05-20T08:55:48.704Z,71.09
2023-05-20T08:59:52.499Z,70.35
2023-05-20T09:03:55.073Z,69.62
2023-05-20T09:08:11.502Z,69.89
2023-05-20T09:12:15.944Z,69.66
2023-05-20T09:16:24.361Z,69.59
2023-05-20T09:20:26.464Z,69.48
2023-05-20T09:24:28.765Z,68.62
2023-05-20T09:28:31.284Z,68.70
2023-05-20T09:32:33.669Z,68.32
2023-05-20T09:36:39.698Z,67.62
2023-05-20T09:40:46.232Z,67.29
2023-05-20T09:44:51.449Z,66.42
2023-05-20T09:48:53.805Z,65.08
2023-05-20T09:52:56.913Z,65.27
2023-05-20T09:57:00.272Z,64.92
2023-05-20T10:01:02.726Z,64.84
2023-05-20T10:05:11.871Z,64.62
2023-05-20T10:09:36.839Z,63.62
2023-05-20T10:14:09.773Z,64.21
2023-05-20T10:18:44.461Z,63.88
2023-05-20T10:23:03.126Z,62.66
2023-05-20T10:27:14.867Z,62.93
2023-05-20T10:31:54.430Z,63.26
2023-05-20T10:36:05.380Z,64.33
2023-05-20T10:40:15.252Z,64.04
2023-05-20T10:44:18.281Z,63.14
2023-05-20T10:48:34.981Z,62.37
2023-05-20T10:52:38.396Z,62.90
2023-05-20T10:56:52.483Z,62.24
2023-05-20T11:01:05.262Z,61.65
2023-05-20T11:05:15.078Z,61.70
2023-05-20T11:09:24.002Z,61.02
2023-05-20T11:13:27.809Z,60.33
2023-05-20T11:17:38.268Z,60.24
2023-05-20T11:21:48.604Z,60.16
2023-05-20T11:25:53.444Z,59.92
2023-05-20T11:29:57.354Z,58.28
2023-05-20T11:34:04.522Z,58.24
2023-05-20T11:38:09.947Z,58.19
2023-05-20T11:42:14.440Z,57.65
2023-05-20T11:46:22.382Z,57.76
2023-05-20T11:50:25.066Z,57.42
2023-05-20T11:54:28.391Z,58.01
2023-05-20T11:58:33.394Z,57.84
2023-05-20T12:02:36.363Z,57.94
2023-05-20T12:06:42.401Z,57.62
2023-05-20T12:10:44.913Z,58.21
2023-05-20T12:14:47.991Z,58.47
2023-05-20T12:18:51.286Z,57.40
2023-05-20T12:22:54.122Z,58.14
2023-05-20T12:26:57.378Z,58.81
2023-05-20T12:30:59.385Z,59.04
2023-05-20T12:35:01.355Z,58.17
2023-05-20T12:39:04.986Z,57.94
2023-05-20T12:43:07.458Z,57.82
2023-05-20T12:47:10.400Z,57.65
2023-05-20T12:51:13.174Z,57.59
2023-05-20T12:55:16.147Z,58.01
2023-05-20T12:59:18.586Z,58.44
2023-05-20T13:03:20.819Z,58.02
2023-05-20T13:07:23.041Z,57.63
2023-05-20T13:11:25.118Z,57.87
2023-05-20T13:15:27.666Z,58.43
2023-05-20T13:19:30.165Z,58.06
2023-05-20T13:23:32.470Z,57.03
2023-05-20T13:27:34.954Z,57.11
2023-05-20T13:31:36.994Z,57.16
2023-05-20T13:35:39.180Z,56.91
2023-05-20T13:39:41.244Z,56.37
2023-05-20T13:43:43.326Z,56.53
2023-05-20T13:47:46.058Z,56.61
2023-05-20T13:51:48.419Z,57.34
2023-05-20T13:55:50.875Z,57.55
2023-05-20T13:59:53.113Z,58.45
2023-05-20T14:03:55.591Z,58.93
2023-05-20T14:07:59.063Z,59.29
2023-05-20T14:12:01.156Z,59.14
2023-05-20T14:16:03.887Z,58.85
2023-05-20T14:20:08.005Z,57.99
2023-05-20T14:24:11.293Z,57.57
2023-05-20T14:28:13.455Z,57.34
2023-05-20T14:32:15.452Z,58.11
2023-05-20T14:36:17.751Z,57.84
2023-05-20T14:40:20.233Z,57.99
2023-05-20T14:44:22.287Z,57.13
2023-05-20T14:48:24.286Z,56.89
2023-05-20T14:52:26.359Z,57.53
2023-05-20T14:56:28.459Z,57.45
2023-05-20T15:00:32.251Z,57.22
2023-05-20T15:04:34.764Z,57.17
2023-05-20T15:08:36.772Z,56.77
2023-05-20T15:12:39.965Z,56.27
2023-05-20T15:16:43.984Z,55.69
2023-05-20T15:20:46.082Z,55.71
2023-05-20T15:24:48.154Z,55.91
2023-05-20T15:28:50.405Z,56.09
2023-05-20T15:32:52.514Z,56.17
2023-05-20T15:36:54.582Z,55.95
2023-05-20T15:40:56.737Z,56.19
2023-05-20T15:44:59.473Z,56.36
2023-05-20T15:49:01.609Z,56.02
2023-05-20T15:53:08.265Z,56.01
2023-05-20T15:57:10.337Z,56.25
2023-05-20T16:01:12.401Z,56.25
2023-05-20T16:05:14.546Z,55.90
2023-05-20T16:09:16.629Z,55.56
2023-05-20T16:13:18.814Z,55.63
2023-05-20T16:17:21.388Z,55.86
2023-05-20T16:21:24.692Z,55.43
2023-05-20T16:25:26.713Z,55.64
2023-05-20T16:29:28.784Z,55.35
2023-05-20T16:33:30.950Z,55.50
2023-05-20T16:37:33.751Z,55.56
2023-05-20T16:41:35.996Z,55.65
2023-05-20T16:45:38.207Z,55.72
2023-05-20T16:49:40.849Z,55.25
2023-05-20T16:54:36.768Z,55.45
2023-05-20T16:58:38.855Z,55.08
2023-05-20T17:02:40.927Z,55.18
2023-05-20T17:06:43.143Z,55.30
2023-05-20T17:10:45.357Z,55.69
2023-05-20T17:14:47.443Z,55.72
2023-05-20T17:18:49.462Z,56.16
2023-05-20T17:22:53.906Z,55.97
2023-05-20T17:26:56.325Z,56.01
2023-05-20T17:30:59.393Z,56.32
2023-05-20T17:35:01.631Z,56.68
2023-05-20T17:39:04.385Z,56.85
2023-05-20T17:43:06.382Z,56.97
2023-05-20T17:47:09.970Z,57.08
2023-05-20T17:51:12.058Z,57.17
2023-05-20T17:55:14.217Z,57.31
2023-05-20T17:59:18.175Z,57.58
2023-05-20T18:03:20.546Z,57.65
2023-05-20T18:07:22.822Z,57.99
2023-05-20T18:11:27.218Z,57.93
2023-05-20T18:15:30.131Z,58.19
2023-05-20T18:19:33.412Z,58.18
2023-05-20T18:23:36.481Z,58.39
2023-05-20T18:27:40.740Z,58.55
2023-05-20T18:31:43.616Z,58.59
2023-05-20T18:35:46.191Z,58.80
2023-05-20T18:39:48.301Z,59.12
2023-05-20T18:43:50.495Z,59.13
2023-05-20T18:47:54.242Z,59.34
2023-05-20T18:51:56.419Z,59.45
2023-05-20T18:56:02.606Z,59.60
2023-05-20T19:00:10.246Z,59.86
2023-05-20T19:04:13.431Z,59.97
2023-05-20T19:08:15.465Z,60.30
2023-05-20T19:12:18.498Z,60.41
2023-05-20T19:16:23.014Z,60.61
2023-05-20T19:20:26.247Z,60.99
2023-05-20T19:24:31.393Z,61.15
2023-05-20T19:28:34.478Z,61.30
2023-05-20T19:32:36.873Z,61.57
2023-05-20T19:36:42.424Z,61.75
2023-05-20T19:40:45.175Z,62.02
2023-05-20T19:44:48.890Z,62.12
2023-05-20T19:48:50.950Z,62.30
2023-05-20T19:52:53.712Z,62.63
2023-05-20T19:56:56.561Z,62.99
2023-05-20T20:00:59.587Z,63.20
2023-05-20T20:05:04.257Z,63.45
2023-05-20T20:09:06.280Z,63.67
2023-05-20T20:13:08.885Z,63.93
2023-05-20T20:17:15.193Z,63.77
2023-05-20T20:21:18.118Z,63.93
2023-05-20T20:25:20.228Z,64.22
2023-05-20T20:29:22.399Z,64.38
2023-05-20T20:33:25.233Z,64.72
2023-05-20T20:37:27.227Z,64.83
2023-05-20T20:41:38.281Z,64.95
2023-05-20T20:45:41.365Z,65.11
2023-05-20T20:49:43.457Z,65.45
2023-05-20T20:53:47.886Z,65.60
2023-05-20T20:57:50.866Z,65.69
2023-05-20T21:01:54.361Z,65.79
2023-05-20T21:05:57.435Z,66.07
2023-05-20T21:10:00.018Z,66.29
2023-05-20T21:14:02.034Z,66.61
2023-05-20T21:18:04.825Z,66.77
2023-05-20T21:22:08.956Z,66.74
2023-05-20T21:26:11.677Z,66.95
2023-05-20T21:30:16.057Z,67.05
2023-05-20T21:34:19.482Z,67.20
2023-05-20T21:38:21.472Z,67.25
2023-05-20T21:42:24.511Z,67.35
2023-05-20T21:46:30.230Z,67.63
2023-05-20T21:50:32.424Z,67.81
2023-05-20T21:54:34.568Z,67.95
2023-05-20T21:58:40.461Z,67.96
2023-05-20T22:02:42.510Z,67.95
2023-05-20T22:06:44.706Z,68.08
2023-05-20T22:10:49.016Z,68.18
2023-05-20T22:14:51.779Z,68.37
2023-05-20T22:18:54.083Z,68.43
2023-05-20T22:22:56.345Z,68.61
2023-05-20T22:26:58.491Z,68.74
2023-05-20T22:31:02.191Z,68.94
2023-05-20T22:35:06.864Z,69.02
2023-05-20T22:39:12.801Z,69.26
2023-05-20T22:43:16.670Z,69.45
2023-05-20T22:47:20.803Z,69.52
2023-05-20T22:51:24.209Z,69.40
2023-05-20T22:55:26.918Z,69.64
2023-05-20T22:59:33.783Z,69.83
2023-05-20T23:03:36.909Z,70.12
2023-05-20T23:07:40.117Z,70.35
2023-05-20T23:11:43.096Z,70.57
2023-05-20T23:15:49.079Z,70.38
2023-05-20T23:19:54.520Z,70.50
2023-05-20T23:23:57.233Z,70.48
2023-05-20T23:28:01.109Z,70.75
2023-05-20T23:32:04.316Z,70.95
2023-05-20T23:36:09.403Z,71.24
2023-05-20T23:40:14.738Z,71.42
2023-05-20T23:44:17.725Z,71.35
2023-05-20T23:48:21.568Z,71.45
2023-05-20T23:52:26.372Z,71.53
2023-05-20T23:56:28.781Z,71.78
